Time;durP1;ratioP1;P1;durP2;ratioP2;P2;SDS_P1;SDS_P2;PMS_P1;PMS_P2;Temp;Humidity;BMP_temperature;BMP_pressure;BME280_temperature;BME280_humidity;BME280_pressure;Samples;Min_cycle;Max_cycle;Signal;HPM_P1;HPM_P2
2024/03/10 00:02:13;;;;;;;;;1.25;1.25;;;;;;;;5069748;28;9900;-81
2024/03/10 00:04:41;;;;;;;;;0.00;0.00;;;;;;;;5068028;28;9889;-82
2024/03/10 00:07:08;;;;;;;;;0.00;0.00;;;;;;;;5070554;28;9856;-81
2024/03/10 00:09:39;;;;;;;;;0.00;0.00;;;;;;;;5070959;28;9873;-82
2024/03/10 00:12:07;;;;;;;;;1.00;1.00;;;;;;;;5066632;28;9842;-82
2024/03/10 00:14:35;;;;;;;;;0.00;0.00;;;;;;;;5071089;28;9925;-82
2024/03/10 00:17:10;;;;;;;;;0.50;0.50;;;;;;;;5071022;28;9928;-84
2024/03/10 00:19:38;;;;;;;;;0.75;0.75;;;;;;;;5065944;28;10127;-83
2024/03/10 00:22:05;;;;;;;;;1.00;1.00;;;;;;;;5070628;28;9894;-84
2024/03/10 00:24:33;;;;;;;;;0.25;0.25;;;;;;;;5070765;28;9936;-83
2024/03/10 00:27:01;;;;;;;;;1.75;1.00;;;;;;;;5063042;28;9961;-83
2024/03/10 00:29:29;;;;;;;;;0.00;0.00;;;;;;;;5068140;28;9858;-83
2024/03/10 00:31:59;;;;;;;;;1.00;1.00;;;;;;;;5070694;28;9786;-82
2024/03/10 00:34:26;;;;;;;;;1.00;1.00;;;;;;;;5071624;28;9876;-82
2024/03/10 00:36:53;;;;;;;;;1.25;1.00;;;;;;;;5073668;28;9876;-83
2024/03/10 00:39:21;;;;;;;;;1.00;1.00;;;;;;;;5073405;28;9709;-83
2024/03/10 00:41:48;;;;;;;;;3.00;1.00;;;;;;;;5074885;28;9885;-81
2024/03/10 00:44:17;;;;;;;;;1.75;1.75;;;;;;;;5074363;28;9919;-83
2024/03/10 00:46:44;;;;;;;;;2.00;0.00;;;;;;;;5074546;28;9963;-83
2024/03/10 00:49:14;;;;;;;;;1.00;1.00;;;;;;;;5073498;28;9934;-82
2024/03/10 00:51:45;;;;;;;;;2.00;1.00;;;;;;;;5073830;28;9848;-82
2024/03/10 00:54:15;;;;;;;;;1.50;1.50;;;;;;;;5069929;28;9846;-82
2024/03/10 00:56:43;;;;;;;;;5.00;2.00;;;;;;;;5069518;28;9841;-81
2024/03/10 00:59:10;;;;;;;;;1.00;1.00;;;;;;;;5069714;28;9852;-82
2024/03/10 01:01:40;;;;;;;;;1.00;1.00;;;;;;;;5068772;28;9938;-82
2024/03/10 01:04:07;;;;;;;;;1.00;1.00;;;;;;;;5069725;28;9864;-82
2024/03/10 01:06:35;;;;;;;;;1.25;1.25;;;;;;;;5068753;28;10034;-82
2024/03/10 01:09:04;;;;;;;;;1.50;1.50;;;;;;;;5068833;28;10459;-82
2024/03/10 01:11:31;;;;;;;;;1.50;0.00;;;;;;;;5068650;28;10012;-82
2024/03/10 01:13:58;;;;;;;;;0.75;0.75;;;;;;;;5068985;28;10714;-83
2024/03/10 01:16:26;;;;;;;;;1.00;1.00;;;;;;;;5069779;28;9863;-83
2024/03/10 01:18:54;;;;;;;;;1.00;1.00;;;;;;;;5089716;28;9922;-82
2024/03/10 01:21:22;;;;;;;;;1.75;1.00;;;;;;;;5076389;28;10589;-83
2024/03/10 01:23:49;;;;;;;;;0.00;0.00;;;;;;;;5069472;28;9925;-83
2024/03/10 01:26:17;;;;;;;;;1.00;1.00;;;;;;;;5067419;28;9897;-83
2024/03/10 01:28:44;;;;;;;;;0.25;0.25;;;;;;;;5063481;28;10141;-83
2024/03/10 01:31:14;;;;;;;;;1.25;1.25;;;;;;;;5068862;28;10675;-81
2024/03/10 01:33:48;;;;;;;;;1.00;1.00;;;;;;;;5070147;28;10035;-83
2024/03/10 01:36:17;;;;;;;;;0.75;0.75;;;;;;;;5069469;28;10049;-82
2024/03/10 01:38:44;;;;;;;;;3.00;1.00;;;;;;;;5069177;28;10033;-83
2024/03/10 01:41:13;;;;;;;;;1.00;1.00;;;;;;;;5069016;28;10073;-82
2024/03/10 01:43:40;;;;;;;;;0.50;0.50;;;;;;;;5070130;28;10018;-83
2024/03/10 01:46:08;;;;;;;;;0.75;0.75;;;;;;;;5070455;28;10740;-84
2024/03/10 01:48:37;;;;;;;;;1.00;1.00;;;;;;;;5070361;28;9934;-84
2024/03/10 01:51:05;;;;;;;;;1.00;1.00;;;;;;;;5069653;28;10090;-84
2024/03/10 01:53:34;;;;;;;;;1.00;1.00;;;;;;;;5068187;28;10092;-82
2024/03/10 01:56:03;;;;;;;;;2.00;1.00;;;;;;;;5068791;28;10061;-82
2024/03/10 01:58:31;;;;;;;;;0.75;0.75;;;;;;;;5067947;28;9981;-81
2024/03/10 02:01:02;;;;;;;;;1.00;1.00;;;;;;;;5068474;28;9950;-83
2024/03/10 02:03:29;;;;;;;;;1.00;1.00;;;;;;;;5069052;28;9949;-82
2024/03/10 02:05:57;;;;;;;;;1.00;1.00;;;;;;;;5068441;28;9877;-82
2024/03/10 02:08:25;;;;;;;;;0.25;0.25;;;;;;;;5068267;28;9916;-82
2024/03/10 02:10:54;;;;;;;;;0.00;0.00;;;;;;;;5068503;28;10253;-82
2024/03/10 02:13:22;;;;;;;;;0.00;0.00;;;;;;;;5067133;28;9787;-81
2024/03/10 02:16:00;;;;;;;;;0.00;0.00;;;;;;;;5058858;28;9908;-81
2024/03/10 02:18:28;;;;;;;;;0.00;0.00;;;;;;;;5053839;28;10587;-82
2024/03/10 02:20:57;;;;;;;;;0.00;0.00;;;;;;;;5064817;28;9771;-82
2024/03/10 02:23:27;;;;;;;;;0.50;0.50;;;;;;;;5058074;28;9688;-82
2024/03/10 02:25:58;;;;;;;;;0.00;0.00;;;;;;;;5070519;28;9754;-82
2024/03/10 02:28:36;;;;;;;;;0.00;0.00;;;;;;;;5072095;28;9667;-83
2024/03/10 02:47:37;;;;;;;;;0.00;0.00;;;;;;;;5067846;28;9738;-83
2024/03/10 02:50:06;;;;;;;;;0.00;0.00;;;;;;;;5068200;28;10494;-82
2024/03/10 02:52:34;;;;;;;;;0.00;0.00;;;;;;;;5068537;28;9873;-82
2024/03/10 02:55:03;;;;;;;;;0.00;0.00;;;;;;;;5050183;28;9700;-83
2024/03/10 02:57:33;;;;;;;;;0.00;0.00;;;;;;;;5066691;28;9691;-82
2024/03/10 03:00:00;;;;;;;;;0.00;0.00;;;;;;;;5066113;28;9690;-82
2024/03/10 03:02:29;;;;;;;;;0.00;0.00;;;;;;;;5067078;28;9778;-82
2024/03/10 03:04:56;;;;;;;;;0.00;0.00;;;;;;;;5066236;28;9708;-82
2024/03/10 03:07:24;;;;;;;;;0.00;0.00;;;;;;;;5068209;28;9675;-82
2024/03/10 03:09:51;;;;;;;;;0.00;0.00;;;;;;;;5067641;28;10381;-81
2024/03/10 03:12:19;;;;;;;;;0.00;0.00;;;;;;;;5069861;28;9872;-82
2024/03/10 03:14:48;;;;;;;;;0.00;0.00;;;;;;;;5070995;28;9606;-82
2024/03/10 03:17:15;;;;;;;;;0.25;0.00;;;;;;;;5069801;28;9684;-82
2024/03/10 03:19:43;;;;;;;;;0.00;0.00;;;;;;;;5064826;28;9756;-82
2024/03/10 03:22:11;;;;;;;;;0.00;0.00;;;;;;;;5056917;28;9812;-82
2024/03/10 03:24:39;;;;;;;;;0.00;0.00;;;;;;;;5070989;28;9875;-82
2024/03/10 03:27:08;;;;;;;;;0.00;0.00;;;;;;;;5071896;28;9883;-82
2024/03/10 03:29:35;;;;;;;;;0.50;0.00;;;;;;;;5069941;28;10440;-82
2024/03/10 03:32:05;;;;;;;;;0.00;0.00;;;;;;;;5071063;28;9648;-83
2024/03/10 03:34:33;;;;;;;;;0.00;0.00;;;;;;;;5071374;28;9865;-83
2024/03/10 03:37:00;;;;;;;;;0.00;0.00;;;;;;;;5071558;28;9845;-83
2024/03/10 03:39:28;;;;;;;;;0.00;0.00;;;;;;;;5070356;28;9857;-82
2024/03/10 03:41:55;;;;;;;;;0.00;0.00;;;;;;;;5071631;28;9897;-82
2024/03/10 03:44:23;;;;;;;;;0.00;0.00;;;;;;;;5049665;28;9889;-82
2024/03/10 03:46:50;;;;;;;;;0.00;0.00;;;;;;;;5061842;28;9771;-83
2024/03/10 03:49:21;;;;;;;;;0.00;0.00;;;;;;;;5071086;28;9943;-82
2024/03/10 03:51:48;;;;;;;;;0.00;0.00;;;;;;;;5062414;28;10058;-83
2024/03/10 03:54:15;;;;;;;;;0.00;0.00;;;;;;;;5066268;28;9795;-82
2024/03/10 03:56:43;;;;;;;;;0.00;0.00;;;;;;;;5096886;27;9928;-85
2024/03/10 03:59:10;;;;;;;;;0.00;0.00;;;;;;;;5059694;28;9678;-82
2024/03/10 04:01:43;;;;;;;;;0.00;0.00;;;;;;;;5071853;28;9713;-83
2024/03/10 04:04:10;;;;;;;;;0.00;0.00;;;;;;;;5071412;28;9939;-82
2024/03/10 04:06:40;;;;;;;;;0.00;0.00;;;;;;;;5072099;28;9874;-82
2024/03/10 04:09:09;;;;;;;;;0.00;0.00;;;;;;;;5039570;28;9769;-82
2024/03/10 04:11:38;;;;;;;;;0.00;0.00;;;;;;;;5054139;28;9797;-82
2024/03/10 04:14:07;;;;;;;;;0.00;0.00;;;;;;;;5057205;28;10532;-81
2024/03/10 04:16:34;;;;;;;;;0.00;0.00;;;;;;;;5063525;28;9784;-82
2024/03/10 04:19:04;;;;;;;;;0.00;0.00;;;;;;;;5062757;28;9736;-82
2024/03/10 04:21:32;;;;;;;;;0.00;0.00;;;;;;;;5073687;28;9694;-82
2024/03/10 04:24:01;;;;;;;;;0.00;0.00;;;;;;;;5074213;28;9609;-83
2024/03/10 04:26:28;;;;;;;;;0.00;0.00;;;;;;;;5074294;28;9787;-82
2024/03/10 04:28:56;;;;;;;;;0.00;0.00;;;;;;;;5075362;28;9610;-83
2024/03/10 04:31:24;;;;;;;;;0.00;0.00;;;;;;;;5071605;28;9810;-82
2024/03/10 04:33:51;;;;;;;;;0.00;0.00;;;;;;;;5070664;28;9713;-82
2024/03/10 04:36:19;;;;;;;;;0.00;0.00;;;;;;;;5070116;28;9644;-83
2024/03/10 04:38:47;;;;;;;;;0.00;0.00;;;;;;;;5070793;28;9763;-83
2024/03/10 04:41:15;;;;;;;;;0.00;0.00;;;;;;;;5070364;28;9812;-82
2024/03/10 04:43:44;;;;;;;;;0.00;0.00;;;;;;;;5070047;28;9774;-83
2024/03/10 04:46:11;;;;;;;;;0.00;0.00;;;;;;;;5069377;28;10544;-82
2024/03/10 04:48:38;;;;;;;;;0.00;0.00;;;;;;;;5069788;28;9682;-83
2024/03/10 04:51:06;;;;;;;;;0.00;0.00;;;;;;;;5069739;28;10418;-82
2024/03/10 04:53:35;;;;;;;;;0.00;0.00;;;;;;;;5060761;28;10534;-82
2024/03/10 04:56:02;;;;;;;;;0.00;0.00;;;;;;;;5069032;28;9710;-82
2024/03/10 04:58:31;;;;;;;;;0.00;0.00;;;;;;;;5070191;28;9935;-82
2024/03/10 05:00:59;;;;;;;;;0.00;0.00;;;;;;;;5070637;28;9483;-82
2024/03/10 05:03:28;;;;;;;;;0.00;0.00;;;;;;;;5073113;28;9718;-82
2024/03/10 05:05:55;;;;;;;;;0.00;0.00;;;;;;;;5043325;28;9615;-83
2024/03/10 05:08:24;;;;;;;;;0.00;0.00;;;;;;;;5069199;28;9645;-83
2024/03/10 05:10:51;;;;;;;;;0.00;0.00;;;;;;;;5068864;28;9706;-83
2024/03/10 05:13:19;;;;;;;;;0.00;0.00;;;;;;;;5067798;28;9628;-83
2024/03/10 05:15:48;;;;;;;;;0.00;0.00;;;;;;;;5068263;28;9800;-83
2024/03/10 05:18:15;;;;;;;;;0.00;0.00;;;;;;;;5067178;28;9698;-83
2024/03/10 05:20:43;;;;;;;;;0.00;0.00;;;;;;;;5069717;28;9700;-82
2024/03/10 05:23:12;;;;;;;;;0.00;0.00;;;;;;;;5057044;28;9842;-83
2024/03/10 05:25:42;;;;;;;;;0.00;0.00;;;;;;;;5069407;28;9752;-83
2024/03/10 05:28:10;;;;;;;;;0.00;0.00;;;;;;;;5067921;28;9753;-82
2024/03/10 05:30:38;;;;;;;;;0.00;0.00;;;;;;;;5068858;28;9608;-83
2024/03/10 05:33:07;;;;;;;;;0.00;0.00;;;;;;;;5069394;28;9691;-83
2024/03/10 05:35:35;;;;;;;;;0.00;0.00;;;;;;;;5067570;28;9799;-83
2024/03/10 05:38:02;;;;;;;;;0.00;0.00;;;;;;;;5067358;28;11076;-84
2024/03/10 05:40:30;;;;;;;;;0.00;0.00;;;;;;;;5069174;28;10523;-82
2024/03/10 05:42:57;;;;;;;;;0.00;0.00;;;;;;;;5068084;28;9708;-83
2024/03/10 05:45:24;;;;;;;;;0.00;0.00;;;;;;;;5068840;28;9704;-82
2024/03/10 05:47:52;;;;;;;;;0.00;0.00;;;;;;;;5068657;28;9793;-83
2024/03/10 05:50:21;;;;;;;;;0.00;0.00;;;;;;;;5067837;28;9777;-83
2024/03/10 05:52:48;;;;;;;;;0.00;0.00;;;;;;;;5050997;28;9814;-83
2024/03/10 05:55:16;;;;;;;;;0.00;0.00;;;;;;;;5069089;28;9930;-83
2024/03/10 05:57:44;;;;;;;;;0.00;0.00;;;;;;;;5067401;28;9761;-85
2024/03/10 06:00:17;;;;;;;;;0.00;0.00;;;;;;;;5069045;28;9939;-82
2024/03/10 06:02:45;;;;;;;;;0.00;0.00;;;;;;;;5057829;28;10515;-83
2024/03/10 06:05:13;;;;;;;;;0.00;0.00;;;;;;;;5068491;28;9872;-83
2024/03/10 06:07:43;;;;;;;;;0.00;0.00;;;;;;;;5072202;28;9691;-82
2024/03/10 06:10:11;;;;;;;;;0.00;0.00;;;;;;;;5071401;28;9768;-83
2024/03/10 06:12:39;;;;;;;;;0.00;0.00;;;;;;;;5072065;28;9805;-82
2024/03/10 06:15:10;;;;;;;;;0.00;0.00;;;;;;;;5071209;28;9901;-83
2024/03/10 06:17:40;;;;;;;;;0.00;0.00;;;;;;;;5073049;28;9640;-82
2024/03/10 06:25:39;;;;;;;;;0.00;0.00;;;;;;;;5058803;28;9663;-83
2024/03/10 06:28:07;;;;;;;;;0.75;0.00;;;;;;;;5067032;28;9768;-83
2024/03/10 06:30:35;;;;;;;;;0.00;0.00;;;;;;;;5070977;28;9699;-85
2024/03/10 06:33:02;;;;;;;;;0.00;0.00;;;;;;;;5085556;28;9638;-83
2024/03/10 06:35:30;;;;;;;;;0.00;0.00;;;;;;;;5084669;28;10380;-83
2024/03/10 06:38:00;;;;;;;;;0.00;0.00;;;;;;;;5054321;28;9826;-84
2024/03/10 06:40:30;;;;;;;;;0.00;0.00;;;;;;;;5049480;28;9634;-83
2024/03/10 06:42:57;;;;;;;;;0.00;0.00;;;;;;;;5066582;28;9787;-83
2024/03/10 06:45:25;;;;;;;;;0.00;0.00;;;;;;;;5068672;28;9810;-83
2024/03/10 06:47:55;;;;;;;;;0.00;0.00;;;;;;;;5056917;28;9769;-81
2024/03/10 06:50:28;;;;;;;;;0.00;0.00;;;;;;;;5058640;28;9734;-83
2024/03/10 06:52:56;;;;;;;;;0.00;0.00;;;;;;;;5053925;28;9758;-83
2024/03/10 06:55:26;;;;;;;;;0.00;0.00;;;;;;;;5063327;28;9781;-83
2024/03/10 06:57:55;;;;;;;;;0.25;0.25;;;;;;;;5068736;28;9866;-83
2024/03/10 07:00:24;;;;;;;;;2.00;0.50;;;;;;;;5071569;28;9872;-82
2024/03/10 07:02:52;;;;;;;;;0.25;0.25;;;;;;;;5073661;28;9854;-84
2024/03/10 07:05:19;;;;;;;;;0.00;0.00;;;;;;;;5073082;28;9753;-83
2024/03/10 07:07:50;;;;;;;;;1.75;0.25;;;;;;;;5072528;28;9972;-84
2024/03/10 07:10:17;;;;;;;;;0.00;0.00;;;;;;;;5070617;28;9639;-84
2024/03/10 07:12:46;;;;;;;;;1.00;1.00;;;;;;;;5072386;28;9854;-83
2024/03/10 07:15:15;;;;;;;;;1.00;1.00;;;;;;;;5070028;28;9869;-83
2024/03/10 07:17:42;;;;;;;;;0.00;0.00;;;;;;;;5071529;28;9855;-83
2024/03/10 07:20:10;;;;;;;;;0.00;0.00;;;;;;;;5070249;28;9933;-84
2024/03/10 07:22:38;;;;;;;;;1.00;1.00;;;;;;;;5060814;28;9802;-78
2024/03/10 07:25:08;;;;;;;;;3.00;3.00;;;;;;;;5070322;28;10011;-80
2024/03/10 07:27:35;;;;;;;;;3.00;3.00;;;;;;;;5075388;28;10172;-77
2024/03/10 07:30:05;;;;;;;;;2.50;2.50;;;;;;;;5069788;28;10050;-74
2024/03/10 07:32:32;;;;;;;;;2.00;2.00;;;;;;;;5071349;28;10182;-79
2024/03/10 07:35:00;;;;;;;;;2.00;1.00;;;;;;;;5070713;28;9998;-77
2024/03/10 07:37:27;;;;;;;;;1.00;1.00;;;;;;;;5070891;28;9844;-76
2024/03/10 07:39:55;;;;;;;;;2.00;2.00;;;;;;;;5070028;28;9907;-78
2024/03/10 07:42:23;;;;;;;;;35.50;30.75;;;;;;;;5070792;28;9871;-75
2024/03/10 07:44:50;;;;;;;;;8.00;8.00;;;;;;;;5070163;28;11000;-76
2024/03/10 07:47:19;;;;;;;;;6.00;6.00;;;;;;;;5068376;28;10221;-76
2024/03/10 07:49:47;;;;;;;;;8.50;8.50;;;;;;;;5070790;28;10390;-77
2024/03/10 07:52:14;;;;;;;;;8.25;5.75;;;;;;;;5072175;28;10376;-75
2024/03/10 07:54:42;;;;;;;;;6.00;6.00;;;;;;;;5063237;28;10272;-76
2024/03/10 07:57:10;;;;;;;;;4.75;4.75;;;;;;;;5071547;28;10240;-82
2024/03/10 07:59:37;;;;;;;;;3.00;3.00;;;;;;;;5074442;28;10139;-77
2024/03/10 08:02:04;;;;;;;;;2.75;2.00;;;;;;;;5073114;28;10136;-79
2024/03/10 08:04:33;;;;;;;;;4.50;3.00;;;;;;;;5073507;28;9950;-78
2024/03/10 08:07:00;;;;;;;;;3.50;3.50;;;;;;;;5070935;28;10107;-80
2024/03/10 08:09:28;;;;;;;;;3.00;3.00;;;;;;;;5072353;28;10028;-76
2024/03/10 08:11:55;;;;;;;;;3.50;3.50;;;;;;;;5067561;28;9849;-78
2024/03/10 08:14:23;;;;;;;;;7.00;5.00;;;;;;;;5067753;28;9892;-77
2024/03/10 08:16:50;;;;;;;;;4.00;4.00;;;;;;;;5065957;28;9849;-76
2024/03/10 08:19:17;;;;;;;;;2.00;0.00;;;;;;;;5070316;28;9855;-80
2024/03/10 08:21:48;;;;;;;;;2.00;2.00;;;;;;;;5066956;28;9850;-78
2024/03/10 08:24:16;;;;;;;;;2.25;2.00;;;;;;;;5061971;28;10796;-80
2024/03/10 08:26:43;;;;;;;;;2.00;2.00;;;;;;;;5068821;28;9789;-77
2024/03/10 08:29:11;;;;;;;;;3.00;3.00;;;;;;;;5068833;28;9994;-78
2024/03/10 08:31:38;;;;;;;;;3.00;3.00;;;;;;;;5069726;28;9617;-78
2024/03/10 08:34:05;;;;;;;;;2.50;2.00;;;;;;;;5069661;28;9775;-79
2024/03/10 08:36:33;;;;;;;;;3.25;3.00;;;;;;;;5070080;28;9911;-79
2024/03/10 08:39:07;;;;;;;;;0.00;0.00;;;;;;;;5071206;28;9926;-80
2024/03/10 08:41:34;;;;;;;;;1.00;1.00;;;;;;;;5071356;28;9589;-80
2024/03/10 08:44:03;;;;;;;;;1.25;1.25;;;;;;;;5070104;28;9674;-78
2024/03/10 08:46:31;;;;;;;;;0.25;0.25;;;;;;;;5057961;28;10417;-76
2024/03/10 08:48:58;;;;;;;;;1.00;1.00;;;;;;;;5068958;28;9634;-76
2024/03/10 08:51:27;;;;;;;;;3.50;3.50;;;;;;;;5069792;28;9543;-76
2024/03/10 08:53:55;;;;;;;;;0.00;0.00;;;;;;;;5068228;28;9679;-81
2024/03/10 08:56:26;;;;;;;;;1.50;1.00;;;;;;;;5068447;28;9433;-82
2024/03/10 08:58:54;;;;;;;;;2.00;2.00;;;;;;;;5068230;28;9464;-80
2024/03/10 09:01:24;;;;;;;;;3.00;3.00;;;;;;;;5069308;28;9522;-81
2024/03/10 09:03:53;;;;;;;;;0.00;0.00;;;;;;;;5068862;28;9689;-80
2024/03/10 09:06:24;;;;;;;;;2.00;2.00;;;;;;;;5069671;28;9530;-77
2024/03/10 09:08:51;;;;;;;;;2.00;2.00;;;;;;;;5069584;28;9606;-78
2024/03/10 09:11:19;;;;;;;;;1.25;1.25;;;;;;;;5066243;28;9536;-73
2024/03/10 09:13:47;;;;;;;;;1.00;1.00;;;;;;;;5060039;28;9568;-77
2024/03/10 09:16:14;;;;;;;;;0.50;0.50;;;;;;;;5069686;28;9584;-75
2024/03/10 09:18:45;;;;;;;;;0.00;0.00;;;;;;;;5065417;28;9600;-75
2024/03/10 09:21:14;;;;;;;;;1.00;1.00;;;;;;;;5061983;28;9545;-77
2024/03/10 09:23:44;;;;;;;;;0.50;0.50;;;;;;;;5069563;28;9562;-75
2024/03/10 09:26:13;;;;;;;;;1.00;1.00;;;;;;;;5069537;28;9523;-79
2024/03/10 09:28:44;;;;;;;;;0.25;0.25;;;;;;;;5060749;28;9606;-79
2024/03/10 09:31:14;;;;;;;;;0.00;0.00;;;;;;;;5068504;28;9484;-79
2024/03/10 09:33:44;;;;;;;;;2.00;2.00;;;;;;;;5069601;28;9812;-77
2024/03/10 09:36:11;;;;;;;;;3.00;1.50;;;;;;;;5068953;28;9693;-77
2024/03/10 09:38:39;;;;;;;;;1.75;1.75;;;;;;;;5070078;28;9743;-75
2024/03/10 09:41:10;;;;;;;;;1.00;1.00;;;;;;;;5069518;28;9954;-79
2024/03/10 09:43:40;;;;;;;;;1.00;1.00;;;;;;;;5070445;28;9720;-75
2024/03/10 09:46:10;;;;;;;;;1.50;1.00;;;;;;;;5069548;28;9634;-75
2024/03/10 09:48:42;;;;;;;;;1.00;1.00;;;;;;;;5070919;28;9928;-76
2024/03/10 09:51:11;;;;;;;;;2.00;2.00;;;;;;;;5070704;28;9791;-77
2024/03/10 09:53:38;;;;;;;;;1.00;1.00;;;;;;;;5072571;28;9881;-75
2024/03/10 09:56:07;;;;;;;;;1.00;1.00;;;;;;;;5061521;28;9923;-76
2024/03/10 09:58:38;;;;;;;;;1.50;1.50;;;;;;;;5070652;28;10636;-78
2024/03/10 10:01:12;;;;;;;;;2.75;1.50;;;;;;;;5057416;28;9810;-77
2024/03/10 10:03:49;;;;;;;;;1.00;1.00;;;;;;;;5068088;28;9987;-77
2024/03/10 10:06:36;;;;;;;;;;;;;;;;;;;;;
2024/03/10 10:09:10;;;;;;;;;1.00;1.00;;;;;;;;5067722;28;10094;-77
2024/03/10 10:11:38;;;;;;;;;1.00;1.00;;;;;;;;5068280;28;9941;-79
2024/03/10 10:14:53;;;;;;;;;1.25;1.25;;;;;;;;5067907;28;9680;-80
2024/03/10 10:17:22;;;;;;;;;1.00;1.00;;;;;;;;5061614;28;9762;-76
2024/03/10 10:19:51;;;;;;;;;1.25;1.25;;;;;;;;5067348;28;9878;-76
2024/03/10 10:22:17;;;;;;;;;2.00;2.00;;;;;;;;5059736;28;9704;-77
2024/03/10 10:24:45;;;;;;;;;2.00;2.00;;;;;;;;5062660;28;9816;-78
2024/03/10 10:27:13;;;;;;;;;1.00;1.00;;;;;;;;5068635;28;9629;-77
2024/03/10 10:29:49;;;;;;;;;0.00;0.00;;;;;;;;5068213;28;9553;-77
2024/03/10 10:32:21;;;;;;;;;1.00;1.00;;;;;;;;5067853;28;9565;-78
2024/03/10 10:34:51;;;;;;;;;0.75;0.75;;;;;;;;5068464;28;9711;-78
2024/03/10 10:37:19;;;;;;;;;1.00;1.00;;;;;;;;5068034;28;9541;-79
2024/03/10 10:39:46;;;;;;;;;1.00;1.00;;;;;;;;5067005;28;9611;-77
2024/03/10 10:42:16;;;;;;;;;1.75;1.75;;;;;;;;5068276;28;9830;-77
2024/03/10 10:44:44;;;;;;;;;1.00;1.00;;;;;;;;5066344;28;9762;-77
2024/03/10 10:47:14;;;;;;;;;2.00;2.00;;;;;;;;5068165;28;9743;-76
2024/03/10 10:49:44;;;;;;;;;1.00;1.00;;;;;;;;5066280;28;9695;-79
2024/03/10 10:52:14;;;;;;;;;3.25;2.00;;;;;;;;5067507;28;10458;-78
2024/03/10 10:54:47;;;;;;;;;1.00;1.00;;;;;;;;5056973;28;9722;-78
2024/03/10 10:57:18;;;;;;;;;1.00;1.00;;;;;;;;5067491;28;9456;-80
2024/03/10 10:59:47;;;;;;;;;1.00;1.00;;;;;;;;5067590;28;9513;-79
2024/03/10 11:02:19;;;;;;;;;4.00;4.00;;;;;;;;5067639;28;9339;-77
2024/03/10 11:04:46;;;;;;;;;3.00;3.00;;;;;;;;5067645;28;9725;-77
2024/03/10 11:07:16;;;;;;;;;4.25;4.25;;;;;;;;5067698;28;9774;-79
2024/03/10 11:09:43;;;;;;;;;4.25;4.25;;;;;;;;5067941;28;10632;-76
2024/03/10 11:12:21;;;;;;;;;4.75;4.75;;;;;;;;5069681;28;9709;-77
2024/03/10 11:14:50;;;;;;;;;3.25;3.25;;;;;;;;5076590;28;9766;-75
2024/03/10 11:17:19;;;;;;;;;2.50;2.50;;;;;;;;5061069;28;9602;-75
2024/03/10 11:19:47;;;;;;;;;7.50;5.75;;;;;;;;5067820;28;9611;-77
2024/03/10 11:22:20;;;;;;;;;5.75;5.75;;;;;;;;5060912;28;9695;-77
2024/03/10 11:25:03;;;;;;;;;4.25;4.25;;;;;;;;5062610;28;9823;-77
2024/03/10 11:27:33;;;;;;;;;6.67;4.33;;;;;;;;5068409;28;10424;-83
2024/03/10 11:30:00;;;;;;;;;4.67;4.00;;;;;;;;5072787;28;9549;-79
2024/03/10 11:32:30;;;;;;;;;4.00;4.00;;;;;;;;5069935;28;9212;-77
2024/03/10 11:35:06;;;;;;;;;4.00;4.00;;;;;;;;5072833;28;9182;-75
2024/03/10 11:37:37;;;;;;;;;3.67;2.33;;;;;;;;5073164;28;9394;-80
2024/03/10 11:40:07;;;;;;;;;4.00;4.00;;;;;;;;5072804;28;9317;-79
2024/03/10 11:42:35;;;;;;;;;2.33;2.33;;;;;;;;5071745;28;9266;-80
2024/03/10 11:45:03;;;;;;;;;3.00;3.00;;;;;;;;5071796;28;10153;-81
2024/03/10 11:47:32;;;;;;;;;0.00;0.00;;;;;;;;5062487;28;9202;-78
2024/03/10 11:50:04;;;;;;;;;4.67;4.67;;;;;;;;5068131;28;9085;-79
2024/03/10 11:52:32;;;;;;;;;4.33;4.33;;;;;;;;5063807;28;9424;-78
2024/03/10 11:55:10;;;;;;;;;4.00;4.00;;;;;;;;5063775;28;9462;-78
2024/03/10 11:57:38;;;;;;;;;9.33;5.67;;;;;;;;5070998;28;9247;-76
2024/03/10 12:00:07;;;;;;;;;4.25;4.25;;;;;;;;5063302;28;9398;-76
2024/03/10 12:02:34;;;;;;;;;5.00;5.00;;;;;;;;5068023;28;9392;-75
2024/03/10 12:05:05;;;;;;;;;2.00;2.00;;;;;;;;5064156;28;9581;-75
2024/03/10 12:07:32;;;;;;;;;3.67;3.67;;;;;;;;5070474;28;9782;-77
2024/03/10 12:10:08;;;;;;;;;6.50;5.00;;;;;;;;5062716;28;9262;-77
2024/03/10 12:12:38;;;;;;;;;4.00;4.00;;;;;;;;5070049;28;9461;-77
2024/03/10 12:15:17;;;;;;;;;5.00;5.00;;;;;;;;5070351;28;9242;-76
2024/03/10 12:17:45;;;;;;;;;6.00;6.00;;;;;;;;5070758;28;10211;-76
2024/03/10 12:20:14;;;;;;;;;5.75;5.75;;;;;;;;5071138;28;9298;-76
2024/03/10 12:22:44;;;;;;;;;8.33;5.00;;;;;;;;5060431;28;9468;-76
2024/03/10 12:25:13;;;;;;;;;5.75;5.75;;;;;;;;5069166;28;9408;-77
2024/03/10 12:27:41;;;;;;;;;5.00;5.00;;;;;;;;5070318;28;9583;-78
2024/03/10 12:30:10;;;;;;;;;5.67;5.67;;;;;;;;5068480;28;9598;-79
2024/03/10 12:32:45;;;;;;;;;5.67;5.67;;;;;;;;5069663;28;10165;-78
2024/03/10 12:35:19;;;;;;;;;7.00;5.00;;;;;;;;5058601;28;9567;-77
2024/03/10 12:37:46;;;;;;;;;8.00;6.75;;;;;;;;5068315;28;10276;-81
2024/03/10 12:40:15;;;;;;;;;4.67;4.67;;;;;;;;5069311;28;9493;-79
2024/03/10 12:42:46;;;;;;;;;5.00;5.00;;;;;;;;5066388;28;9330;-79
2024/03/10 12:45:15;;;;;;;;;3.00;3.00;;;;;;;;5069570;28;9447;-78
2024/03/10 12:47:43;;;;;;;;;3.00;2.00;;;;;;;;5069330;28;9398;-79
2024/03/10 12:50:11;;;;;;;;;3.67;3.67;;;;;;;;5072256;28;9168;-76
2024/03/10 12:52:39;;;;;;;;;5.00;5.00;;;;;;;;5058308;28;9267;-76
2024/03/10 12:55:08;;;;;;;;;4.75;4.50;;;;;;;;5069233;28;9019;-75
2024/03/10 12:57:36;;;;;;;;;3.67;3.67;;;;;;;;5069169;28;8857;-74
2024/03/10 13:00:07;;;;;;;;;4.00;4.00;;;;;;;;5068265;28;8958;-75
2024/03/10 13:02:34;;;;;;;;;6.75;5.50;;;;;;;;5059032;28;9580;-78
2024/03/10 13:05:03;;;;;;;;;3.25;3.25;;;;;;;;5051672;28;8935;-79
2024/03/10 13:07:30;;;;;;;;;5.25;5.25;;;;;;;;5069007;28;8860;-78
2024/03/10 13:09:57;;;;;;;;;5.00;5.00;;;;;;;;5069368;28;8848;-77
2024/03/10 13:12:26;;;;;;;;;6.00;4.25;;;;;;;;5069062;28;8848;-77
2024/03/10 13:14:57;;;;;;;;;5.75;5.75;;;;;;;;5058849;28;8873;-76
2024/03/10 13:17:25;;;;;;;;;6.00;5.00;;;;;;;;5069224;28;8871;-77
2024/03/10 13:19:53;;;;;;;;;6.25;6.25;;;;;;;;5070487;28;8852;-77
2024/03/10 13:22:22;;;;;;;;;7.00;5.00;;;;;;;;5070493;28;8860;-77
2024/03/10 13:24:50;;;;;;;;;2.33;2.33;;;;;;;;5069204;28;10005;-78
2024/03/10 13:27:17;;;;;;;;;4.25;4.25;;;;;;;;5070363;28;8954;-76
2024/03/10 13:29:45;;;;;;;;;7.00;7.00;;;;;;;;5070223;28;8852;-77
2024/03/10 13:32:18;;;;;;;;;6.33;6.00;;;;;;;;5070879;28;8948;-77
2024/03/10 13:34:45;;;;;;;;;5.00;5.00;;;;;;;;5069145;28;9034;-76
2024/03/10 13:37:12;;;;;;;;;8.00;6.33;;;;;;;;5069172;28;9009;-76
2024/03/10 13:39:39;;;;;;;;;6.00;6.00;;;;;;;;5069108;28;9342;-76
2024/03/10 13:42:07;;;;;;;;;7.00;7.00;;;;;;;;5075167;28;9248;-75
2024/03/10 13:44:34;;;;;;;;;5.00;5.00;;;;;;;;5075622;28;9379;-77
2024/03/10 13:47:04;;;;;;;;;9.00;9.00;;;;;;;;5069324;28;9245;-78
2024/03/10 13:49:33;;;;;;;;;7.00;7.00;;;;;;;;5068225;28;9459;-79
2024/03/10 13:52:00;;;;;;;;;9.00;5.67;;;;;;;;5068327;28;9297;-80
2024/03/10 13:54:29;;;;;;;;;5.00;5.00;;;;;;;;5050505;28;9088;-76
2024/03/10 13:56:57;;;;;;;;;7.00;7.00;;;;;;;;5067375;28;9161;-80
2024/03/10 13:59:26;;;;;;;;;8.00;8.00;;;;;;;;5068569;28;9175;-76
2024/03/10 14:01:53;;;;;;;;;6.67;6.67;;;;;;;;5067206;28;10110;-76
2024/03/10 14:04:23;;;;;;;;;12.67;10.33;;;;;;;;5070982;28;9418;-76
2024/03/10 14:06:56;;;;;;;;;12.75;12.75;;;;;;;;5065434;28;9498;-78
2024/03/10 14:09:23;;;;;;;;;9.50;9.50;;;;;;;;5069345;28;9406;-77
2024/03/10 14:11:53;;;;;;;;;9.00;9.00;;;;;;;;5065818;28;9549;-76
2024/03/10 14:14:20;;;;;;;;;10.00;10.00;;;;;;;;5071041;28;9678;-75
2024/03/10 14:16:50;;;;;;;;;12.25;12.25;;;;;;;;5066858;28;10265;-79
2024/03/10 14:19:18;;;;;;;;;9.00;9.00;;;;;;;;5068210;28;9558;-79
2024/03/10 14:21:45;;;;;;;;;9.75;8.75;;;;;;;;5060548;28;10413;-78
2024/03/10 14:24:17;;;;;;;;;13.75;7.75;;;;;;;;5059321;28;9534;-79
2024/03/10 14:26:46;;;;;;;;;6.33;6.33;;;;;;;;5067497;28;9536;-79
2024/03/10 14:29:14;;;;;;;;;9.50;9.50;;;;;;;;5067600;28;9326;-76
2024/03/10 14:31:44;;;;;;;;;9.00;9.00;;;;;;;;5066932;28;9438;-78
2024/03/10 14:34:13;;;;;;;;;13.25;12.50;;;;;;;;5068397;28;9785;-79
2024/03/10 14:36:43;;;;;;;;;8.50;8.50;;;;;;;;5068088;28;9805;-79
2024/03/10 14:39:14;;;;;;;;;7.00;7.00;;;;;;;;5049051;28;10655;-76
2024/03/10 14:41:42;;;;;;;;;10.00;10.00;;;;;;;;5056675;28;9633;-80
2024/03/10 14:44:11;;;;;;;;;9.50;9.50;;;;;;;;5067450;28;9602;-77
2024/03/10 14:46:38;;;;;;;;;11.00;9.00;;;;;;;;5068178;28;9479;-76
2024/03/10 14:49:08;;;;;;;;;14.00;13.00;;;;;;;;5054202;28;10308;-80
2024/03/10 14:51:35;;;;;;;;;14.50;14.50;;;;;;;;5068116;28;9692;-79
2024/03/10 14:54:03;;;;;;;;;8.75;8.75;;;;;;;;5055894;28;9557;-86
2024/03/10 14:56:31;;;;;;;;;7.50;7.50;;;;;;;;5068199;28;9494;-77
2024/03/10 14:59:00;;;;;;;;;7.00;7.00;;;;;;;;5066289;28;9706;-78
2024/03/10 15:01:30;;;;;;;;;8.50;8.50;;;;;;;;5067911;28;9578;-78
2024/03/10 15:04:00;;;;;;;;;11.25;11.25;;;;;;;;5054258;28;9795;-76
2024/03/10 15:06:29;;;;;;;;;8.25;8.25;;;;;;;;5058105;28;9765;-77
2024/03/10 15:08:58;;;;;;;;;10.00;10.00;;;;;;;;5067170;28;9607;-78
2024/03/10 15:11:26;;;;;;;;;9.25;9.25;;;;;;;;5068854;28;9780;-78
2024/03/10 15:14:05;;;;;;;;;8.75;7.00;;;;;;;;5068824;28;9541;-78
2024/03/10 15:16:35;;;;;;;;;9.00;7.00;;;;;;;;5057324;28;9536;-80
2024/03/10 15:19:06;;;;;;;;;8.67;8.33;;;;;;;;5067246;28;9855;-77
2024/03/10 15:22:04;;;;;;;;;7.00;7.00;;;;;;;;5070230;28;9353;-80
2024/03/10 15:24:35;;;;;;;;;9.33;9.33;;;;;;;;5072405;28;9351;-79
2024/03/10 15:27:06;;;;;;;;;8.00;8.00;;;;;;;;5071284;28;9258;-79
2024/03/10 15:29:45;;;;;;;;;33.50;31.00;;;;;;;;5060882;28;9258;-77